Rawalpindi, Pakistan
Current Conditions -  °F | °C
As of 12:00 AM on Sunday 26 Oct 2014 (Local Time) from OPRN Reporting Station
Clear Clear  
Wind Chill: 19°   Ceiling: Unl
Heat Index: 19°   Visibility: 4mi
Dew Point: 14°   Wind: 5mph
Humidity: 73%   Direction: 50°NE
Pressure: NA   Gusts: NA
Location:  33.6°N, 73.04°E
Report Text: OPRN 251900Z 05004KT 6000 SKC 19/14 Q1017.7/30.05
Loading
Personal Weather Stations






























Interactive Weather Map
Tropical Storm Tracking
New forecast layout! Learn more

10-Day Weather Forecast

Advertisements
Track Severe Weather on mobile